sensor_id;sensor_type;location;lat;lon;timestamp;pressure;altitude;pressure_sealevel;temperature;humidity
28167;BME280;15455;53.376;-6.262;2023-01-28T00:00:04;103066.34;;;1.17;100.00
28167;BME280;15455;53.376;-6.262;2023-01-28T00:02:51;103064.88;;;1.21;100.00
28167;BME280;15455;53.376;-6.262;2023-01-28T00:05:36;103063.34;;;1.23;100.00
28167;BME280;15455;53.376;-6.262;2023-01-28T00:08:21;103060.88;;;1.25;100.00
28167;BME280;15455;53.376;-6.262;2023-01-28T00:11:10;103058.63;;;1.29;100.00
28167;BME280;15455;53.376;-6.262;2023-01-28T00:13:56;103047.78;;;1.33;100.00
28167;BME280;15455;53.376;-6.262;2023-01-28T00:16:42;103037.38;;;1.32;100.00
28167;BME280;15455;53.376;-6.262;2023-01-28T00:19:27;103039.28;;;1.34;100.00
28167;BME280;15455;53.376;-6.262;2023-01-28T00:22:12;103043.63;;;1.35;100.00
28167;BME280;15455;53.376;-6.262;2023-01-28T00:24:59;103023.28;;;1.27;100.00
28167;BME280;15455;53.376;-6.262;2023-01-28T00:27:44;103032.09;;;1.18;100.00
28167;BME280;15455;53.376;-6.262;2023-01-28T00:30:31;103027.31;;;1.11;100.00
28167;BME280;15455;53.376;-6.262;2023-01-28T00:33:17;103032.59;;;1.13;100.00
28167;BME280;15455;53.376;-6.262;2023-01-28T00:36:05;103035.50;;;1.17;100.00
28167;BME280;15455;53.376;-6.262;2023-01-28T00:38:53;103049.56;;;1.23;100.00
28167;BME280;15455;53.376;-6.262;2023-01-28T00:41:39;103058.84;;;1.32;100.00
28167;BME280;15455;53.376;-6.262;2023-01-28T00:44:24;103061.97;;;1.40;100.00
28167;BME280;15455;53.376;-6.262;2023-01-28T00:47:10;103041.84;;;1.46;100.00
28167;BME280;15455;53.376;-6.262;2023-01-28T00:49:55;103049.69;;;1.48;100.00
28167;BME280;15455;53.376;-6.262;2023-01-28T00:52:41;103045.31;;;1.47;100.00
28167;BME280;15455;53.376;-6.262;2023-01-28T00:55:26;103034.25;;;1.48;100.00
28167;BME280;15455;53.376;-6.262;2023-01-28T00:58:12;103013.66;;;1.48;100.00
28167;BME280;15455;53.376;-6.262;2023-01-28T01:01:19;103012.63;;;1.46;100.00
28167;BME280;15455;53.376;-6.262;2023-01-28T01:04:04;103007.72;;;1.49;100.00
28167;BME280;15455;53.376;-6.262;2023-01-28T01:06:52;103009.81;;;1.54;100.00
28167;BME280;15455;53.376;-6.262;2023-01-28T01:09:37;102999.97;;;1.61;100.00
28167;BME280;15455;53.376;-6.262;2023-01-28T01:12:23;103002.41;;;1.71;100.00
28167;BME280;15455;53.376;-6.262;2023-01-28T01:15:09;102999.94;;;1.72;100.00
28167;BME280;15455;53.376;-6.262;2023-01-28T01:17:55;102993.41;;;1.78;100.00
28167;BME280;15455;53.376;-6.262;2023-01-28T01:20:43;102994.84;;;1.86;100.00
28167;BME280;15455;53.376;-6.262;2023-01-28T01:23:30;102992.84;;;1.94;100.00
28167;BME280;15455;53.376;-6.262;2023-01-28T01:26:15;102983.72;;;1.99;100.00
28167;BME280;15455;53.376;-6.262;2023-01-28T01:29:01;102986.59;;;2.03;100.00
28167;BME280;15455;53.376;-6.262;2023-01-28T01:31:46;102974.38;;;2.13;100.00
28167;BME280;15455;53.376;-6.262;2023-01-28T01:34:32;102967.16;;;2.20;100.00
28167;BME280;15455;53.376;-6.262;2023-01-28T01:37:17;102969.84;;;2.22;100.00
28167;BME280;15455;53.376;-6.262;2023-01-28T01:40:03;102972.41;;;2.22;100.00
28167;BME280;15455;53.376;-6.262;2023-01-28T01:42:49;102975.75;;;2.21;100.00
28167;BME280;15455;53.376;-6.262;2023-01-28T01:45:35;102973.44;;;2.24;100.00
28167;BME280;15455;53.376;-6.262;2023-01-28T01:48:25;102972.72;;;2.26;100.00
28167;BME280;15455;53.376;-6.262;2023-01-28T01:51:16;102979.09;;;2.32;100.00
28167;BME280;15455;53.376;-6.262;2023-01-28T01:54:03;102978.72;;;2.39;100.00
28167;BME280;15455;53.376;-6.262;2023-01-28T01:56:50;102982.69;;;2.47;100.00
28167;BME280;15455;53.376;-6.262;2023-01-28T01:59:36;102983.00;;;2.52;100.00
28167;BME280;15455;53.376;-6.262;2023-01-28T02:02:24;102980.91;;;2.59;100.00
28167;BME280;15455;53.376;-6.262;2023-01-28T02:05:12;102988.28;;;2.67;100.00
28167;BME280;15455;53.376;-6.262;2023-01-28T02:07:59;102986.19;;;2.74;100.00
28167;BME280;15455;53.376;-6.262;2023-01-28T02:11:06;103000.09;;;2.76;100.00
28167;BME280;15455;53.376;-6.262;2023-01-28T02:13:53;102999.41;;;2.79;100.00
28167;BME280;15455;53.376;-6.262;2023-01-28T02:16:44;103006.75;;;2.86;100.00
28167;BME280;15455;53.376;-6.262;2023-01-28T02:19:43;103015.97;;;2.96;100.00
28167;BME280;15455;53.376;-6.262;2023-01-28T02:28:51;103031.09;;;3.17;100.00
28167;BME280;15455;53.376;-6.262;2023-01-28T02:31:46;103042.56;;;3.22;100.00
28167;BME280;15455;53.376;-6.262;2023-01-28T02:34:41;103043.69;;;3.25;100.00
28167;BME280;15455;53.376;-6.262;2023-01-28T02:37:36;103059.16;;;3.25;100.00
28167;BME280;15455;53.376;-6.262;2023-01-28T02:40:45;103066.00;;;3.25;100.00
28167;BME280;15455;53.376;-6.262;2023-01-28T02:43:48;103066.63;;;3.21;100.00
28167;BME280;15455;53.376;-6.262;2023-01-28T02:46:36;103064.81;;;3.20;100.00
28167;BME280;15455;53.376;-6.262;2023-01-28T02:49:50;103057.88;;;3.19;100.00
28167;BME280;15455;53.376;-6.262;2023-01-28T02:59:16;103038.28;;;3.09;100.00
28167;BME280;15455;53.376;-6.262;2023-01-28T03:05:29;103020.03;;;3.06;100.00
28167;BME280;15455;53.376;-6.262;2023-01-28T03:08:16;103028.59;;;3.05;100.00
28167;BME280;15455;53.376;-6.262;2023-01-28T03:11:21;103034.63;;;3.05;100.00
28167;BME280;15455;53.376;-6.262;2023-01-28T03:14:27;103031.28;;;3.06;100.00
28167;BME280;15455;53.376;-6.262;2023-01-28T03:17:41;103010.75;;;3.08;100.00
28167;BME280;15455;53.376;-6.262;2023-01-28T03:24:04;103016.78;;;3.08;100.00
28167;BME280;15455;53.376;-6.262;2023-01-28T03:27:16;103005.69;;;3.09;100.00
28167;BME280;15455;53.376;-6.262;2023-01-28T03:30:29;103014.28;;;3.10;100.00
28167;BME280;15455;53.376;-6.262;2023-01-28T03:33:46;103027.97;;;3.09;100.00
28167;BME280;15455;53.376;-6.262;2023-01-28T03:36:52;103042.56;;;3.08;100.00
28167;BME280;15455;53.376;-6.262;2023-01-28T03:40:01;103052.91;;;3.08;100.00
28167;BME280;15455;53.376;-6.262;2023-01-28T03:42:47;103050.41;;;3.10;100.00
28167;BME280;15455;53.376;-6.262;2023-01-28T03:45:49;103049.63;;;3.11;100.00
28167;BME280;15455;53.376;-6.262;2023-01-28T03:48:37;103037.03;;;3.16;100.00
28167;BME280;15455;53.376;-6.262;2023-01-28T03:51:25;103031.97;;;3.17;100.00
28167;BME280;15455;53.376;-6.262;2023-01-28T03:54:11;103026.00;;;3.18;100.00
28167;BME280;15455;53.376;-6.262;2023-01-28T03:56:57;103029.47;;;3.19;100.00
28167;BME280;15455;53.376;-6.262;2023-01-28T03:59:43;103037.13;;;3.17;100.00
28167;BME280;15455;53.376;-6.262;2023-01-28T04:02:28;103031.66;;;3.12;100.00
28167;BME280;15455;53.376;-6.262;2023-01-28T04:05:14;103042.00;;;3.12;100.00
28167;BME280;15455;53.376;-6.262;2023-01-28T04:08:04;103041.78;;;3.09;100.00
28167;BME280;15455;53.376;-6.262;2023-01-28T04:11:15;103050.41;;;3.10;100.00
28167;BME280;15455;53.376;-6.262;2023-01-28T04:14:02;103040.97;;;3.10;100.00
28167;BME280;15455;53.376;-6.262;2023-01-28T04:17:17;103032.16;;;3.07;100.00
28167;BME280;15455;53.376;-6.262;2023-01-28T04:20:04;103034.84;;;3.08;100.00
28167;BME280;15455;53.376;-6.262;2023-01-28T04:22:50;103031.47;;;3.09;100.00
28167;BME280;15455;53.376;-6.262;2023-01-28T04:25:37;103028.06;;;3.10;100.00
28167;BME280;15455;53.376;-6.262;2023-01-28T04:28:25;103019.25;;;3.07;100.00
28167;BME280;15455;53.376;-6.262;2023-01-28T04:31:11;103018.88;;;3.01;100.00
28167;BME280;15455;53.376;-6.262;2023-01-28T04:33:59;103032.84;;;3.04;100.00
28167;BME280;15455;53.376;-6.262;2023-01-28T04:37:02;103030.38;;;3.06;100.00
28167;BME280;15455;53.376;-6.262;2023-01-28T04:40:20;103027.19;;;3.10;100.00
28167;BME280;15455;53.376;-6.262;2023-01-28T04:43:11;103030.88;;;3.13;100.00
28167;BME280;15455;53.376;-6.262;2023-01-28T04:46:16;103032.94;;;3.19;100.00
28167;BME280;15455;53.376;-6.262;2023-01-28T04:49:30;103047.84;;;3.23;100.00
28167;BME280;15455;53.376;-6.262;2023-01-28T04:52:30;103051.53;;;3.27;100.00
28167;BME280;15455;53.376;-6.262;2023-01-28T04:55:33;103054.38;;;3.32;100.00
28167;BME280;15455;53.376;-6.262;2023-01-28T04:58:19;103047.44;;;3.30;100.00
28167;BME280;15455;53.376;-6.262;2023-01-28T05:01:06;103048.34;;;3.31;100.00
28167;BME280;15455;53.376;-6.262;2023-01-28T05:03:53;103049.03;;;3.28;100.00
28167;BME280;15455;53.376;-6.262;2023-01-28T05:06:42;103044.66;;;3.27;100.00
28167;BME280;15455;53.376;-6.262;2023-01-28T05:09:41;103050.72;;;3.28;100.00
28167;BME280;15455;53.376;-6.262;2023-01-28T05:12:26;103051.63;;;3.28;100.00
28167;BME280;15455;53.376;-6.262;2023-01-28T05:15:15;103056.09;;;3.31;100.00
28167;BME280;15455;53.376;-6.262;2023-01-28T05:18:01;103058.78;;;3.33;100.00
28167;BME280;15455;53.376;-6.262;2023-01-28T05:20:53;103065.00;;;3.36;100.00
28167;BME280;15455;53.376;-6.262;2023-01-28T05:23:38;103071.38;;;3.41;100.00
28167;BME280;15455;53.376;-6.262;2023-01-28T05:26:24;103074.94;;;3.43;100.00
28167;BME280;15455;53.376;-6.262;2023-01-28T05:29:09;103078.53;;;3.45;100.00
28167;BME280;15455;53.376;-6.262;2023-01-28T05:31:56;103076.91;;;3.47;100.00
28167;BME280;15455;53.376;-6.262;2023-01-28T05:34:42;103084.75;;;3.49;100.00
28167;BME280;15455;53.376;-6.262;2023-01-28T05:37:31;103081.41;;;3.50;100.00
28167;BME280;15455;53.376;-6.262;2023-01-28T05:40:18;103080.63;;;3.51;100.00
28167;BME280;15455;53.376;-6.262;2023-01-28T05:43:04;103087.53;;;3.52;100.00
28167;BME280;15455;53.376;-6.262;2023-01-28T05:46:00;103082.47;;;3.54;100.00
28167;BME280;15455;53.376;-6.262;2023-01-28T05:49:04;103080.81;;;3.54;100.00
28167;BME280;15455;53.376;-6.262;2023-01-28T05:52:15;103076.44;;;3.53;100.00
28167;BME280;15455;53.376;-6.262;2023-01-28T05:55:00;103069.28;;;3.49;100.00
28167;BME280;15455;53.376;-6.262;2023-01-28T05:57:47;103061.34;;;3.46;100.00
28167;BME280;15455;53.376;-6.262;2023-01-28T06:00:34;103053.22;;;3.40;100.00
28167;BME280;15455;53.376;-6.262;2023-01-28T06:03:21;103065.81;;;3.35;100.00
28167;BME280;15455;53.376;-6.262;2023-01-28T06:06:06;103059.84;;;3.36;100.00
28167;BME280;15455;53.376;-6.262;2023-01-28T06:08:52;103065.81;;;3.35;100.00
28167;BME280;15455;53.376;-6.262;2023-01-28T06:11:43;103060.53;;;3.34;100.00
28167;BME280;15455;53.376;-6.262;2023-01-28T06:14:30;103070.66;;;3.30;100.00
28167;BME280;15455;53.376;-6.262;2023-01-28T06:17:46;103067.09;;;3.28;100.00
28167;BME280;15455;53.376;-6.262;2023-01-28T06:20:40;103066.81;;;3.24;100.00
28167;BME280;15455;53.376;-6.262;2023-01-28T06:23:27;103064.63;;;3.17;100.00
28167;BME280;15455;53.376;-6.262;2023-01-28T06:26:12;103056.47;;;3.10;100.00
28167;BME280;15455;53.376;-6.262;2023-01-28T06:29:01;103055.28;;;3.05;100.00
28167;BME280;15455;53.376;-6.262;2023-01-28T06:31:46;103054.06;;;3.00;100.00
28167;BME280;15455;53.376;-6.262;2023-01-28T06:34:32;103052.22;;;2.98;100.00
28167;BME280;15455;53.376;-6.262;2023-01-28T06:37:17;103050.22;;;2.93;100.00
28167;BME280;15455;53.376;-6.262;2023-01-28T06:40:04;103045.06;;;2.93;100.00
28167;BME280;15455;53.376;-6.262;2023-01-28T06:42:49;103051.97;;;2.94;100.00
28167;BME280;15455;53.376;-6.262;2023-01-28T06:45:35;103053.56;;;2.92;100.00
28167;BME280;15455;53.376;-6.262;2023-01-28T06:48:20;103060.53;;;2.93;100.00
28167;BME280;15455;53.376;-6.262;2023-01-28T06:51:06;103062.19;;;2.93;100.00
28167;BME280;15455;53.376;-6.262;2023-01-28T06:53:52;103066.00;;;2.98;100.00
28167;BME280;15455;53.376;-6.262;2023-01-28T06:56:37;103062.00;;;3.03;100.00
28167;BME280;15455;53.376;-6.262;2023-01-28T06:59:22;103058.06;;;3.08;100.00
28167;BME280;15455;53.376;-6.262;2023-01-28T07:02:10;103062.03;;;3.17;100.00
28167;BME280;15455;53.376;-6.262;2023-01-28T07:04:55;103066.63;;;3.21;100.00
28167;BME280;15455;53.376;-6.262;2023-01-28T07:07:41;103066.00;;;3.25;100.00
28167;BME280;15455;53.376;-6.262;2023-01-28T07:10:27;103065.13;;;3.24;100.00
28167;BME280;15455;53.376;-6.262;2023-01-28T07:13:12;103060.03;;;3.26;100.00
28167;BME280;15455;53.376;-6.262;2023-01-28T07:15:58;103059.56;;;3.32;100.00
28167;BME280;15455;53.376;-6.262;2023-01-28T07:18:44;103058.47;;;3.41;100.00
28167;BME280;15455;53.376;-6.262;2023-01-28T07:21:30;103066.69;;;3.49;100.00
28167;BME280;15455;53.376;-6.262;2023-01-28T07:24:15;103053.28;;;3.55;100.00
28167;BME280;15455;53.376;-6.262;2023-01-28T07:27:01;103060.44;;;3.59;100.00
28167;BME280;15455;53.376;-6.262;2023-01-28T07:29:47;103074.31;;;3.61;100.00
28167;BME280;15455;53.376;-6.262;2023-01-28T07:32:33;103074.53;;;3.64;100.00
28167;BME280;15455;53.376;-6.262;2023-01-28T07:35:18;103073.72;;;3.65;100.00
28167;BME280;15455;53.376;-6.262;2023-01-28T07:38:03;103072.84;;;3.64;100.00
28167;BME280;15455;53.376;-6.262;2023-01-28T07:40:49;103067.59;;;3.63;100.00
28167;BME280;15455;53.376;-6.262;2023-01-28T07:43:34;103065.88;;;3.63;100.00
28167;BME280;15455;53.376;-6.262;2023-01-28T07:46:19;103066.56;;;3.61;100.00
28167;BME280;15455;53.376;-6.262;2023-01-28T07:49:06;103062.22;;;3.60;100.00
28167;BME280;15455;53.376;-6.262;2023-01-28T07:51:51;103054.06;;;3.54;100.00
28167;BME280;15455;53.376;-6.262;2023-01-28T07:54:37;103059.88;;;3.50;100.00
28167;BME280;15455;53.376;-6.262;2023-01-28T07:57:22;103066.59;;;3.47;100.00
28167;BME280;15455;53.376;-6.262;2023-01-28T08:00:08;103072.78;;;3.50;100.00
28167;BME280;15455;53.376;-6.262;2023-01-28T08:03:01;103076.91;;;3.47;100.00
28167;BME280;15455;53.376;-6.262;2023-01-28T08:05:49;103069.38;;;3.51;100.00
28167;BME280;15455;53.376;-6.262;2023-01-28T08:08:35;103076.63;;;3.56;100.00
28167;BME280;15455;53.376;-6.262;2023-01-28T08:11:21;103084.66;;;3.61;100.00
28167;BME280;15455;53.376;-6.262;2023-01-28T08:14:09;103085.75;;;3.64;100.00
28167;BME280;15455;53.376;-6.262;2023-01-28T08:16:56;103098.94;;;3.69;100.00
28167;BME280;15455;53.376;-6.262;2023-01-28T08:19:42;103096.66;;;3.74;100.00
28167;BME280;15455;53.376;-6.262;2023-01-28T08:22:27;103102.09;;;3.78;100.00
28167;BME280;15455;53.376;-6.262;2023-01-28T08:25:13;103102.53;;;3.85;100.00
28167;BME280;15455;53.376;-6.262;2023-01-28T08:27:59;103105.28;;;3.88;100.00
28167;BME280;15455;53.376;-6.262;2023-01-28T08:30:45;103102.09;;;3.92;100.00
28167;BME280;15455;53.376;-6.262;2023-01-28T08:33:31;103110.66;;;3.91;100.00
28167;BME280;15455;53.376;-6.262;2023-01-28T08:36:16;103113.41;;;3.94;100.00
28167;BME280;15455;53.376;-6.262;2023-01-28T08:39:02;103103.28;;;3.97;100.00
28167;BME280;15455;53.376;-6.262;2023-01-28T08:41:48;103116.28;;;3.98;100.00
28167;BME280;15455;53.376;-6.262;2023-01-28T08:44:33;103107.75;;;3.99;100.00
28167;BME280;15455;53.376;-6.262;2023-01-28T08:47:18;103108.75;;;4.02;100.00
28167;BME280;15455;53.376;-6.262;2023-01-28T08:50:05;103109.53;;;4.00;100.00
28167;BME280;15455;53.376;-6.262;2023-01-28T08:52:59;103105.16;;;3.99;100.00
28167;BME280;15455;53.376;-6.262;2023-01-28T08:55:47;103104.28;;;3.99;100.00
28167;BME280;15455;53.376;-6.262;2023-01-28T08:58:33;103111.94;;;3.97;100.00
28167;BME280;15455;53.376;-6.262;2023-01-28T09:01:18;103107.66;;;3.98;100.00
28167;BME280;15455;53.376;-6.262;2023-01-28T09:04:04;103113.78;;;4.00;100.00
28167;BME280;15455;53.376;-6.262;2023-01-28T09:06:49;103111.44;;;4.03;100.00
28167;BME280;15455;53.376;-6.262;2023-01-28T09:09:35;103111.81;;;4.09;100.00
28167;BME280;15455;53.376;-6.262;2023-01-28T09:12:21;103108.09;;;4.19;100.00
28167;BME280;15455;53.376;-6.262;2023-01-28T09:15:07;103113.84;;;4.28;100.00
28167;BME280;15455;53.376;-6.262;2023-01-28T09:17:57;103119.56;;;4.38;100.00
28167;BME280;15455;53.376;-6.262;2023-01-28T09:20:43;103122.81;;;4.48;100.00
28167;BME280;15455;53.376;-6.262;2023-01-28T09:23:28;103126.69;;;4.55;100.00
28167;BME280;15455;53.376;-6.262;2023-01-28T09:26:13;103123.34;;;4.58;100.00
28167;BME280;15455;53.376;-6.262;2023-01-28T09:28:59;103120.16;;;4.62;100.00
28167;BME280;15455;53.376;-6.262;2023-01-28T09:31:45;103118.50;;;4.62;100.00
28167;BME280;15455;53.376;-6.262;2023-01-28T09:34:30;103117.84;;;4.66;100.00
28167;BME280;15455;53.376;-6.262;2023-01-28T09:37:15;103119.03;;;4.72;100.00
28167;BME280;15455;53.376;-6.262;2023-01-28T09:40:02;103127.25;;;4.79;100.00
28167;BME280;15455;53.376;-6.262;2023-01-28T09:46:04;103135.94;;;4.95;100.00
28167;BME280;15455;53.376;-6.262;2023-01-28T09:48:51;103131.00;;;4.99;100.00
28167;BME280;15455;53.376;-6.262;2023-01-28T09:51:47;103130.47;;;5.05;100.00
28167;BME280;15455;53.376;-6.262;2023-01-28T09:54:55;103134.16;;;5.09;100.00
28167;BME280;15455;53.376;-6.262;2023-01-28T09:57:48;103140.31;;;5.11;100.00
28167;BME280;15455;53.376;-6.262;2023-01-28T10:10:28;103152.00;;;5.19;100.00
28167;BME280;15455;53.376;-6.262;2023-01-28T10:13:25;103152.19;;;5.22;100.00
28167;BME280;15455;53.376;-6.262;2023-01-28T10:19:09;103166.00;;;5.22;100.00
28167;BME280;15455;53.376;-6.262;2023-01-28T10:22:08;103167.19;;;5.28;100.00
28167;BME280;15455;53.376;-6.262;2023-01-28T10:25:00;103167.19;;;5.28;100.00
28167;BME280;15455;53.376;-6.262;2023-01-28T10:27:51;103168.06;;;5.28;100.00
28167;BME280;15455;53.376;-6.262;2023-01-28T10:30:38;103159.41;;;5.28;100.00
28167;BME280;15455;53.376;-6.262;2023-01-28T10:36:13;103162.53;;;5.37;100.00
28167;BME280;15455;53.376;-6.262;2023-01-28T10:39:00;103174.84;;;5.41;100.00
28167;BME280;15455;53.376;-6.262;2023-01-28T10:41:45;103174.16;;;5.44;100.00
28167;BME280;15455;53.376;-6.262;2023-01-28T10:44:43;103180.59;;;5.50;100.00
28167;BME280;15455;53.376;-6.262;2023-01-28T10:47:43;103173.69;;;5.51;100.00
28167;BME280;15455;53.376;-6.262;2023-01-28T10:50:30;103167.72;;;5.52;100.00
28167;BME280;15455;53.376;-6.262;2023-01-28T10:53:16;103161.81;;;5.54;100.00
28167;BME280;15455;53.376;-6.262;2023-01-28T10:56:03;103160.38;;;5.60;100.00
28167;BME280;15455;53.376;-6.262;2023-01-28T10:59:02;103165.03;;;5.65;100.00
28167;BME280;15455;53.376;-6.262;2023-01-28T11:01:55;103161.88;;;5.71;100.00
28167;BME280;15455;53.376;-6.262;2023-01-28T11:04:41;103155.25;;;5.76;100.00
28167;BME280;15455;53.376;-6.262;2023-01-28T11:07:27;103145.50;;;5.87;100.00
28167;BME280;15455;53.376;-6.262;2023-01-28T11:10:26;103141.09;;;6.01;100.00
28167;BME280;15455;53.376;-6.262;2023-01-28T11:16:15;103129.31;;;6.22;100.00
28167;BME280;15455;53.376;-6.262;2023-01-28T11:19:03;103124.72;;;6.33;100.00
28167;BME280;15455;53.376;-6.262;2023-01-28T11:21:53;103115.81;;;6.45;100.00
28167;BME280;15455;53.376;-6.262;2023-01-28T11:24:41;103103.38;;;6.55;100.00
28167;BME280;15455;53.376;-6.262;2023-01-28T11:27:30;103102.53;;;6.73;100.00
28167;BME280;15455;53.376;-6.262;2023-01-28T11:30:29;103109.34;;;6.87;100.00
28167;BME280;15455;53.376;-6.262;2023-01-28T11:33:20;103095.69;;;6.91;100.00
28167;BME280;15455;53.376;-6.262;2023-01-28T11:36:17;103087.69;;;6.87;100.00
28167;BME280;15455;53.376;-6.262;2023-01-28T11:39:17;103084.38;;;6.89;100.00
28167;BME280;15455;53.376;-6.262;2023-01-28T11:42:18;103084.66;;;6.95;100.00
28167;BME280;15455;53.376;-6.262;2023-01-28T11:45:57;103084.00;;;7.00;100.00
28167;BME280;15455;53.376;-6.262;2023-01-28T11:54:40;103078.66;;;6.97;100.00
28167;BME280;15455;53.376;-6.262;2023-01-28T11:57:41;103066.84;;;6.85;100.00
28167;BME280;15455;53.376;-6.262;2023-01-28T12:00:43;103069.44;;;6.85;100.00
28167;BME280;15455;53.376;-6.262;2023-01-28T12:03:40;103052.72;;;6.80;100.00
28167;BME280;15455;53.376;-6.262;2023-01-28T12:06:40;103054.38;;;6.78;100.00
28167;BME280;15455;53.376;-6.262;2023-01-28T12:12:49;103047.50;;;6.62;100.00
28167;BME280;15455;53.376;-6.262;2023-01-28T12:25:16;103055.22;;;6.44;100.00
28167;BME280;15455;53.376;-6.262;2023-01-28T12:28:17;103049.88;;;6.41;100.00
28167;BME280;15455;53.376;-6.262;2023-01-28T12:31:30;103056.22;;;6.46;100.00
28167;BME280;15455;53.376;-6.262;2023-01-28T12:46:45;103028.34;;;6.42;100.00
28167;BME280;15455;53.376;-6.262;2023-01-28T12:52:43;103022.56;;;6.48;100.00
28167;BME280;15455;53.376;-6.262;2023-01-28T12:58:25;103018.91;;;6.44;100.00
28167;BME280;15455;53.376;-6.262;2023-01-28T13:01:48;103008.38;;;6.41;100.00
28167;BME280;15455;53.376;-6.262;2023-01-28T13:04:46;103010.25;;;6.43;100.00
28167;BME280;15455;53.376;-6.262;2023-01-28T13:07:48;103004.03;;;6.40;100.00
28167;BME280;15455;53.376;-6.262;2023-01-28T13:10:44;103003.28;;;6.42;100.00
28167;BME280;15455;53.376;-6.262;2023-01-28T13:13:36;102998.34;;;6.47;100.00
28167;BME280;15455;53.376;-6.262;2023-01-28T13:16:22;102992.16;;;6.45;100.00
28167;BME280;15455;53.376;-6.262;2023-01-28T13:19:24;102992.09;;;6.43;100.00
28167;BME280;15455;53.376;-6.262;2023-01-28T13:22:58;102993.88;;;6.45;100.00
28167;BME280;15455;53.376;-6.262;2023-01-28T13:25:49;102993.97;;;6.46;100.00
28167;BME280;15455;53.376;-6.262;2023-01-28T13:28:35;102986.25;;;6.48;100.00
28167;BME280;15455;53.376;-6.262;2023-01-28T13:31:22;102988.78;;;6.46;100.00
28167;BME280;15455;53.376;-6.262;2023-01-28T13:34:42;102982.53;;;6.42;100.00
28167;BME280;15455;53.376;-6.262;2023-01-28T13:40:23;102979.94;;;6.42;100.00
28167;BME280;15455;53.376;-6.262;2023-01-28T13:46:28;102975.31;;;6.37;100.00
28167;BME280;15455;53.376;-6.262;2023-01-28T13:49:17;102967.09;;;6.28;100.00
28167;BME280;15455;53.376;-6.262;2023-01-28T13:52:12;102961.75;;;6.24;100.00
28167;BME280;15455;53.376;-6.262;2023-01-28T13:55:16;102958.91;;;6.20;100.00
28167;BME280;15455;53.376;-6.262;2023-01-28T14:17:43;102931.63;;;6.10;100.00
28167;BME280;15455;53.376;-6.262;2023-01-28T14:20:40;102930.31;;;6.18;100.00
28167;BME280;15455;53.376;-6.262;2023-01-28T14:23:28;102935.00;;;6.25;100.00
28167;BME280;15455;53.376;-6.262;2023-01-28T14:29:19;102934.50;;;6.33;100.00
28167;BME280;15455;53.376;-6.262;2023-01-28T14:32:15;102938.63;;;6.29;100.00
28167;BME280;15455;53.376;-6.262;2023-01-28T14:35:07;102943.66;;;6.26;100.00
28167;BME280;15455;53.376;-6.262;2023-01-28T14:37:53;102942.78;;;6.25;100.00
28167;BME280;15455;53.376;-6.262;2023-01-28T14:40:41;102946.25;;;6.26;100.00
28167;BME280;15455;53.376;-6.262;2023-01-28T14:43:26;102947.91;;;6.24;100.00
28167;BME280;15455;53.376;-6.262;2023-01-28T14:46:26;102947.91;;;6.24;100.00
28167;BME280;15455;53.376;-6.262;2023-01-28T14:55:31;102952.59;;;6.15;100.00
28167;BME280;15455;53.376;-6.262;2023-01-28T14:58:23;102951.38;;;6.08;100.00
28167;BME280;15455;53.376;-6.262;2023-01-28T15:01:25;102952.22;;;6.07;100.00
28167;BME280;15455;53.376;-6.262;2023-01-28T15:04:30;102961.59;;;6.05;100.00
28167;BME280;15455;53.376;-6.262;2023-01-28T15:10:05;102963.94;;;6.00;100.00
28167;BME280;15455;53.376;-6.262;2023-01-28T15:13:08;102963.94;;;6.00;100.00
28167;BME280;15455;53.376;-6.262;2023-01-28T15:15:56;102972.59;;;6.01;100.00
28167;BME280;15455;53.376;-6.262;2023-01-28T15:18:46;102973.53;;;6.01;100.00
28167;BME280;15455;53.376;-6.262;2023-01-28T15:21:32;102964.84;;;6.01;100.00
28167;BME280;15455;53.376;-6.262;2023-01-28T15:24:19;102968.19;;;5.98;100.00
28167;BME280;15455;53.376;-6.262;2023-01-28T15:27:05;102962.81;;;5.95;100.00
28167;BME280;15455;53.376;-6.262;2023-01-28T15:29:53;102978.25;;;5.94;100.00
28167;BME280;15455;53.376;-6.262;2023-01-28T15:32:38;102973.75;;;5.89;100.00
28167;BME280;15455;53.376;-6.262;2023-01-28T15:35:24;102969.91;;;5.83;100.00
28167;BME280;15455;53.376;-6.262;2023-01-28T15:38:10;102965.38;;;5.79;100.00
28167;BME280;15455;53.376;-6.262;2023-01-28T15:41:02;102966.09;;;5.76;100.00
28167;BME280;15455;53.376;-6.262;2023-01-28T15:43:50;102967.72;;;5.74;100.00
28167;BME280;15455;53.376;-6.262;2023-01-28T15:46:38;102966.78;;;5.72;100.00
28167;BME280;15455;53.376;-6.262;2023-01-28T15:49:30;102971.97;;;5.72;100.00
28167;BME280;15455;53.376;-6.262;2023-01-28T15:52:17;102968.38;;;5.70;100.00
28167;BME280;15455;53.376;-6.262;2023-01-28T15:55:03;102973.72;;;5.73;100.00
28167;BME280;15455;53.376;-6.262;2023-01-28T15:57:49;102962.41;;;5.71;100.00
28167;BME280;15455;53.376;-6.262;2023-01-28T16:00:34;102968.44;;;5.71;100.00
28167;BME280;15455;53.376;-6.262;2023-01-28T16:03:20;102964.81;;;5.68;100.00
28167;BME280;15455;53.376;-6.262;2023-01-28T16:06:20;102962.88;;;5.64;100.00
28167;BME280;15455;53.376;-6.262;2023-01-28T16:09:20;102972.25;;;5.62;100.00
28167;BME280;15455;53.376;-6.262;2023-01-28T16:12:08;102980.75;;;5.59;100.00
28167;BME280;15455;53.376;-6.262;2023-01-28T16:14:59;102984.94;;;5.57;100.00
28167;BME280;15455;53.376;-6.262;2023-01-28T16:17:52;102979.69;;;5.55;100.00
28167;BME280;15455;53.376;-6.262;2023-01-28T16:20:37;102969.34;;;5.55;100.00
28167;BME280;15455;53.376;-6.262;2023-01-28T16:23:26;102971.91;;;5.55;100.00
28167;BME280;15455;53.376;-6.262;2023-01-28T16:26:23;102974.50;;;5.55;100.00
28167;BME280;15455;53.376;-6.262;2023-01-28T16:29:14;102973.63;;;5.55;100.00
28167;BME280;15455;53.376;-6.262;2023-01-28T16:32:01;102966.75;;;5.55;100.00
28167;BME280;15455;53.376;-6.262;2023-01-28T16:34:47;102971.03;;;5.55;100.00
28167;BME280;15455;53.376;-6.262;2023-01-28T16:37:33;102968.38;;;5.53;100.00